sensor_id;sensor_type;location;lat;lon;timestamp;P1;durP1;ratioP1;P2;durP2;ratioP2
7074;SDS011;3578;51.568;6.932;2023-02-19T00:01:05;34.83;;;28.97;;
7074;SDS011;3578;51.568;6.932;2023-02-19T00:03:35;34.10;;;28.57;;
7074;SDS011;3578;51.568;6.932;2023-02-19T00:06:04;38.03;;;28.10;;
7074;SDS011;3578;51.568;6.932;2023-02-19T00:08:34;41.40;;;31.37;;
7074;SDS011;3578;51.568;6.932;2023-02-19T00:11:03;33.57;;;29.37;;
7074;SDS011;3578;51.568;6.932;2023-02-19T00:13:34;34.67;;;29.67;;
7074;SDS011;3578;51.568;6.932;2023-02-19T00:16:04;36.60;;;28.67;;
7074;SDS011;3578;51.568;6.932;2023-02-19T00:18:31;39.10;;;30.13;;
7074;SDS011;3578;51.568;6.932;2023-02-19T00:21:00;40.80;;;29.50;;
7074;SDS011;3578;51.568;6.932;2023-02-19T00:23:27;36.27;;;28.03;;
7074;SDS011;3578;51.568;6.932;2023-02-19T00:25:54;38.97;;;29.17;;
7074;SDS011;3578;51.568;6.932;2023-02-19T00:28:21;36.10;;;27.80;;
7074;SDS011;3578;51.568;6.932;2023-02-19T00:30:48;37.70;;;27.37;;
7074;SDS011;3578;51.568;6.932;2023-02-19T00:33:16;35.43;;;28.90;;
7074;SDS011;3578;51.568;6.932;2023-02-19T00:35:43;36.30;;;28.40;;
7074;SDS011;3578;51.568;6.932;2023-02-19T00:38:12;31.10;;;26.43;;
7074;SDS011;3578;51.568;6.932;2023-02-19T00:40:39;35.40;;;29.13;;
7074;SDS011;3578;51.568;6.932;2023-02-19T00:43:06;34.40;;;26.60;;
7074;SDS011;3578;51.568;6.932;2023-02-19T00:45:34;29.17;;;25.07;;
7074;SDS011;3578;51.568;6.932;2023-02-19T00:48:02;32.23;;;25.53;;
7074;SDS011;3578;51.568;6.932;2023-02-19T00:50:30;26.23;;;23.50;;
7074;SDS011;3578;51.568;6.932;2023-02-19T00:52:58;32.37;;;25.87;;
7074;SDS011;3578;51.568;6.932;2023-02-19T00:55:28;30.00;;;26.63;;
7074;SDS011;3578;51.568;6.932;2023-02-19T00:57:55;32.00;;;25.87;;
7074;SDS011;3578;51.568;6.932;2023-02-19T01:00:23;32.97;;;24.47;;
7074;SDS011;3578;51.568;6.932;2023-02-19T01:02:50;33.33;;;24.90;;
7074;SDS011;3578;51.568;6.932;2023-02-19T01:05:17;29.50;;;25.77;;
7074;SDS011;3578;51.568;6.932;2023-02-19T01:07:44;29.40;;;25.47;;
7074;SDS011;3578;51.568;6.932;2023-02-19T01:10:11;35.37;;;27.00;;
7074;SDS011;3578;51.568;6.932;2023-02-19T01:12:40;31.67;;;25.67;;
7074;SDS011;3578;51.568;6.932;2023-02-19T01:15:07;33.80;;;26.60;;
7074;SDS011;3578;51.568;6.932;2023-02-19T01:17:34;33.63;;;26.30;;
7074;SDS011;3578;51.568;6.932;2023-02-19T01:20:01;34.73;;;26.67;;
7074;SDS011;3578;51.568;6.932;2023-02-19T01:22:29;35.87;;;29.73;;
7074;SDS011;3578;51.568;6.932;2023-02-19T01:24:56;33.20;;;26.63;;
7074;SDS011;3578;51.568;6.932;2023-02-19T01:27:23;35.97;;;28.03;;
7074;SDS011;3578;51.568;6.932;2023-02-19T01:29:52;36.10;;;29.07;;
7074;SDS011;3578;51.568;6.932;2023-02-19T01:32:19;37.03;;;28.13;;
7074;SDS011;3578;51.568;6.932;2023-02-19T01:34:46;40.13;;;28.07;;
7074;SDS011;3578;51.568;6.932;2023-02-19T01:37:14;37.60;;;29.50;;
7074;SDS011;3578;51.568;6.932;2023-02-19T01:39:41;36.60;;;28.13;;
7074;SDS011;3578;51.568;6.932;2023-02-19T01:42:10;42.07;;;30.33;;
7074;SDS011;3578;51.568;6.932;2023-02-19T01:47:50;40.83;;;31.23;;
7074;SDS011;3578;51.568;6.932;2023-02-19T01:50:31;40.40;;;29.63;;
7074;SDS011;3578;51.568;6.932;2023-02-19T01:53:04;39.63;;;29.33;;
7074;SDS011;3578;51.568;6.932;2023-02-19T01:55:35;40.70;;;30.07;;
7074;SDS011;3578;51.568;6.932;2023-02-19T01:58:03;36.63;;;28.30;;
7074;SDS011;3578;51.568;6.932;2023-02-19T02:00:32;38.57;;;28.60;;
7074;SDS011;3578;51.568;6.932;2023-02-19T02:02:59;42.07;;;29.20;;
7074;SDS011;3578;51.568;6.932;2023-02-19T02:05:44;38.60;;;29.37;;
7074;SDS011;3578;51.568;6.932;2023-02-19T02:08:21;42.07;;;29.80;;
7074;SDS011;3578;51.568;6.932;2023-02-19T02:11:06;42.80;;;31.13;;
7074;SDS011;3578;51.568;6.932;2023-02-19T02:13:33;46.43;;;30.93;;
7074;SDS011;3578;51.568;6.932;2023-02-19T02:16:07;50.53;;;31.70;;
7074;SDS011;3578;51.568;6.932;2023-02-19T02:18:51;43.63;;;28.93;;
7074;SDS011;3578;51.568;6.932;2023-02-19T02:21:52;44.40;;;29.93;;
7074;SDS011;3578;51.568;6.932;2023-02-19T02:24:47;43.90;;;29.63;;
7074;SDS011;3578;51.568;6.932;2023-02-19T02:27:50;49.90;;;30.73;;
7074;SDS011;3578;51.568;6.932;2023-02-19T02:30:27;47.67;;;30.70;;
7074;SDS011;3578;51.568;6.932;2023-02-19T02:33:03;44.60;;;27.53;;
7074;SDS011;3578;51.568;6.932;2023-02-19T02:35:51;48.10;;;28.03;;
7074;SDS011;3578;51.568;6.932;2023-02-19T02:38:24;47.63;;;30.30;;
7074;SDS011;3578;51.568;6.932;2023-02-19T02:40:54;47.10;;;29.90;;
7074;SDS011;3578;51.568;6.932;2023-02-19T02:43:22;53.17;;;30.73;;
7074;SDS011;3578;51.568;6.932;2023-02-19T02:45:51;52.90;;;31.87;;
7074;SDS011;3578;51.568;6.932;2023-02-19T02:48:21;42.60;;;30.20;;
7074;SDS011;3578;51.568;6.932;2023-02-19T02:50:56;46.57;;;29.23;;
7074;SDS011;3578;51.568;6.932;2023-02-19T02:53:28;43.53;;;30.40;;
7074;SDS011;3578;51.568;6.932;2023-02-19T02:56:16;46.00;;;30.30;;
7074;SDS011;3578;51.568;6.932;2023-02-19T02:58:45;44.03;;;27.50;;
7074;SDS011;3578;51.568;6.932;2023-02-19T03:01:16;44.10;;;28.47;;
7074;SDS011;3578;51.568;6.932;2023-02-19T03:04:05;44.43;;;27.73;;
7074;SDS011;3578;51.568;6.932;2023-02-19T03:06:37;39.43;;;26.03;;
7074;SDS011;3578;51.568;6.932;2023-02-19T03:09:08;39.83;;;26.40;;
7074;SDS011;3578;51.568;6.932;2023-02-19T03:11:41;38.37;;;26.93;;
7074;SDS011;3578;51.568;6.932;2023-02-19T03:14:30;49.50;;;26.40;;
7074;SDS011;3578;51.568;6.932;2023-02-19T03:17:23;48.67;;;28.13;;
7074;SDS011;3578;51.568;6.932;2023-02-19T03:20:16;41.10;;;26.30;;
7074;SDS011;3578;51.568;6.932;2023-02-19T03:22:48;41.80;;;24.90;;
7074;SDS011;3578;51.568;6.932;2023-02-19T03:25:18;37.07;;;23.23;;
7074;SDS011;3578;51.568;6.932;2023-02-19T03:28:08;34.40;;;21.60;;
7074;SDS011;3578;51.568;6.932;2023-02-19T03:30:39;27.60;;;20.10;;
7074;SDS011;3578;51.568;6.932;2023-02-19T03:33:13;32.53;;;20.93;;
7074;SDS011;3578;51.568;6.932;2023-02-19T03:35:44;29.73;;;18.80;;
7074;SDS011;3578;51.568;6.932;2023-02-19T03:38:16;29.27;;;20.70;;
7074;SDS011;3578;51.568;6.932;2023-02-19T03:40:50;38.27;;;20.97;;
7074;SDS011;3578;51.568;6.932;2023-02-19T03:43:23;35.80;;;20.60;;
7074;SDS011;3578;51.568;6.932;2023-02-19T03:46:01;32.43;;;20.43;;
7074;SDS011;3578;51.568;6.932;2023-02-19T03:48:35;33.97;;;19.77;;
7074;SDS011;3578;51.568;6.932;2023-02-19T03:51:14;32.40;;;20.63;;
7074;SDS011;3578;51.568;6.932;2023-02-19T03:53:54;29.80;;;19.17;;
7074;SDS011;3578;51.568;6.932;2023-02-19T03:56:31;39.57;;;19.43;;
7074;SDS011;3578;51.568;6.932;2023-02-19T03:59:04;26.17;;;19.30;;
7074;SDS011;3578;51.568;6.932;2023-02-19T04:01:39;31.43;;;18.60;;
7074;SDS011;3578;51.568;6.932;2023-02-19T04:04:15;33.87;;;19.77;;
7074;SDS011;3578;51.568;6.932;2023-02-19T04:06:48;27.03;;;19.20;;
7074;SDS011;3578;51.568;6.932;2023-02-19T04:09:21;33.17;;;21.00;;
7074;SDS011;3578;51.568;6.932;2023-02-19T04:11:52;37.47;;;19.93;;
7074;SDS011;3578;51.568;6.932;2023-02-19T04:14:21;34.10;;;18.37;;
7074;SDS011;3578;51.568;6.932;2023-02-19T04:16:53;31.13;;;20.57;;
7074;SDS011;3578;51.568;6.932;2023-02-19T04:19:26;31.40;;;20.00;;
7074;SDS011;3578;51.568;6.932;2023-02-19T04:21:56;36.33;;;19.77;;
7074;SDS011;3578;51.568;6.932;2023-02-19T04:24:25;33.60;;;18.40;;
7074;SDS011;3578;51.568;6.932;2023-02-19T04:26:58;29.50;;;18.47;;
7074;SDS011;3578;51.568;6.932;2023-02-19T04:29:25;33.70;;;18.53;;
7074;SDS011;3578;51.568;6.932;2023-02-19T04:31:53;33.50;;;19.20;;
7074;SDS011;3578;51.568;6.932;2023-02-19T04:34:20;31.57;;;19.10;;
7074;SDS011;3578;51.568;6.932;2023-02-19T04:36:48;31.77;;;20.03;;
7074;SDS011;3578;51.568;6.932;2023-02-19T04:39:15;30.93;;;20.67;;
7074;SDS011;3578;51.568;6.932;2023-02-19T04:41:42;29.23;;;20.90;;
7074;SDS011;3578;51.568;6.932;2023-02-19T04:44:09;33.33;;;19.60;;
7074;SDS011;3578;51.568;6.932;2023-02-19T04:46:36;27.00;;;18.50;;
7074;SDS011;3578;51.568;6.932;2023-02-19T04:49:03;25.63;;;19.63;;
7074;SDS011;3578;51.568;6.932;2023-02-19T04:51:30;30.13;;;18.57;;
7074;SDS011;3578;51.568;6.932;2023-02-19T04:53:58;25.60;;;17.70;;
7074;SDS011;3578;51.568;6.932;2023-02-19T04:56:25;30.93;;;19.67;;
7074;SDS011;3578;51.568;6.932;2023-02-19T04:58:52;28.77;;;18.07;;
7074;SDS011;3578;51.568;6.932;2023-02-19T05:01:19;29.20;;;19.77;;
7074;SDS011;3578;51.568;6.932;2023-02-19T05:03:46;28.30;;;17.73;;
7074;SDS011;3578;51.568;6.932;2023-02-19T05:06:13;27.80;;;19.80;;
7074;SDS011;3578;51.568;6.932;2023-02-19T05:08:40;27.83;;;18.13;;
7074;SDS011;3578;51.568;6.932;2023-02-19T05:11:09;29.43;;;19.90;;
7074;SDS011;3578;51.568;6.932;2023-02-19T05:13:38;32.80;;;19.60;;
7074;SDS011;3578;51.568;6.932;2023-02-19T05:16:05;32.43;;;20.37;;
7074;SDS011;3578;51.568;6.932;2023-02-19T05:18:37;27.67;;;18.93;;
7074;SDS011;3578;51.568;6.932;2023-02-19T05:21:05;28.27;;;18.43;;
7074;SDS011;3578;51.568;6.932;2023-02-19T05:23:32;30.87;;;19.70;;
7074;SDS011;3578;51.568;6.932;2023-02-19T05:26:02;29.30;;;18.50;;
7074;SDS011;3578;51.568;6.932;2023-02-19T05:28:32;30.13;;;19.07;;
7074;SDS011;3578;51.568;6.932;2023-02-19T05:31:03;30.30;;;19.10;;
7074;SDS011;3578;51.568;6.932;2023-02-19T05:33:31;29.10;;;18.77;;
7074;SDS011;3578;51.568;6.932;2023-02-19T05:36:02;29.37;;;18.63;;
7074;SDS011;3578;51.568;6.932;2023-02-19T05:38:32;27.90;;;18.73;;
7074;SDS011;3578;51.568;6.932;2023-02-19T05:41:06;33.83;;;18.00;;
7074;SDS011;3578;51.568;6.932;2023-02-19T05:43:36;29.20;;;17.33;;
7074;SDS011;3578;51.568;6.932;2023-02-19T05:46:04;36.90;;;19.37;;
7074;SDS011;3578;51.568;6.932;2023-02-19T05:48:32;36.10;;;17.67;;
7074;SDS011;3578;51.568;6.932;2023-02-19T05:51:00;27.37;;;18.23;;
7074;SDS011;3578;51.568;6.932;2023-02-19T05:53:28;30.33;;;17.40;;
7074;SDS011;3578;51.568;6.932;2023-02-19T05:55:56;28.20;;;17.77;;
7074;SDS011;3578;51.568;6.932;2023-02-19T05:58:23;27.10;;;17.43;;
7074;SDS011;3578;51.568;6.932;2023-02-19T06:00:51;29.43;;;17.30;;
7074;SDS011;3578;51.568;6.932;2023-02-19T06:03:19;33.43;;;17.90;;
7074;SDS011;3578;51.568;6.932;2023-02-19T06:05:46;27.60;;;17.10;;
7074;SDS011;3578;51.568;6.932;2023-02-19T06:08:14;28.57;;;16.73;;
7074;SDS011;3578;51.568;6.932;2023-02-19T06:10:42;29.47;;;16.90;;
7074;SDS011;3578;51.568;6.932;2023-02-19T06:13:09;25.23;;;16.50;;
7074;SDS011;3578;51.568;6.932;2023-02-19T06:15:37;25.60;;;16.90;;
7074;SDS011;3578;51.568;6.932;2023-02-19T06:18:05;23.87;;;15.00;;
7074;SDS011;3578;51.568;6.932;2023-02-19T06:20:32;28.00;;;15.47;;
7074;SDS011;3578;51.568;6.932;2023-02-19T06:22:59;19.30;;;14.43;;
7074;SDS011;3578;51.568;6.932;2023-02-19T06:25:26;21.13;;;14.00;;
7074;SDS011;3578;51.568;6.932;2023-02-19T06:27:53;22.43;;;14.23;;
7074;SDS011;3578;51.568;6.932;2023-02-19T06:30:20;20.10;;;14.83;;
7074;SDS011;3578;51.568;6.932;2023-02-19T06:32:49;23.77;;;15.47;;
7074;SDS011;3578;51.568;6.932;2023-02-19T06:35:19;22.20;;;13.87;;
7074;SDS011;3578;51.568;6.932;2023-02-19T06:37:46;25.77;;;14.50;;
7074;SDS011;3578;51.568;6.932;2023-02-19T06:40:14;24.80;;;15.10;;
7074;SDS011;3578;51.568;6.932;2023-02-19T06:42:41;21.57;;;13.77;;
7074;SDS011;3578;51.568;6.932;2023-02-19T06:45:09;23.27;;;15.07;;
7074;SDS011;3578;51.568;6.932;2023-02-19T06:47:37;21.13;;;13.90;;
7074;SDS011;3578;51.568;6.932;2023-02-19T06:50:04;22.87;;;14.90;;
7074;SDS011;3578;51.568;6.932;2023-02-19T06:52:33;22.70;;;14.60;;
7074;SDS011;3578;51.568;6.932;2023-02-19T06:55:00;26.80;;;14.90;;
7074;SDS011;3578;51.568;6.932;2023-02-19T06:57:26;19.80;;;14.60;;
7074;SDS011;3578;51.568;6.932;2023-02-19T06:59:53;20.57;;;14.00;;
7074;SDS011;3578;51.568;6.932;2023-02-19T07:02:20;18.13;;;14.67;;
7074;SDS011;3578;51.568;6.932;2023-02-19T07:04:47;20.60;;;14.00;;
7074;SDS011;3578;51.568;6.932;2023-02-19T07:07:14;21.43;;;14.90;;
7074;SDS011;3578;51.568;6.932;2023-02-19T07:09:43;19.00;;;15.67;;
7074;SDS011;3578;51.568;6.932;2023-02-19T07:12:10;23.83;;;13.83;;
7074;SDS011;3578;51.568;6.932;2023-02-19T07:14:37;20.80;;;14.53;;
7074;SDS011;3578;51.568;6.932;2023-02-19T07:17:03;26.30;;;13.87;;
7074;SDS011;3578;51.568;6.932;2023-02-19T07:19:30;16.77;;;13.67;;
7074;SDS011;3578;51.568;6.932;2023-02-19T07:21:58;15.77;;;13.00;;
7074;SDS011;3578;51.568;6.932;2023-02-19T07:24:25;19.60;;;13.03;;
7074;SDS011;3578;51.568;6.932;2023-02-19T07:26:54;18.60;;;13.50;;
7074;SDS011;3578;51.568;6.932;2023-02-19T07:29:21;15.93;;;12.57;;
7074;SDS011;3578;51.568;6.932;2023-02-19T07:31:47;19.27;;;12.80;;
7074;SDS011;3578;51.568;6.932;2023-02-19T07:34:14;25.30;;;14.10;;
7074;SDS011;3578;51.568;6.932;2023-02-19T07:36:42;18.33;;;12.50;;
7074;SDS011;3578;51.568;6.932;2023-02-19T07:39:09;19.37;;;13.20;;
7074;SDS011;3578;51.568;6.932;2023-02-19T07:41:39;16.27;;;13.00;;
7074;SDS011;3578;51.568;6.932;2023-02-19T07:44:07;18.30;;;13.77;;
7074;SDS011;3578;51.568;6.932;2023-02-19T07:46:37;19.60;;;14.03;;
7074;SDS011;3578;51.568;6.932;2023-02-19T07:49:04;19.40;;;13.30;;
7074;SDS011;3578;51.568;6.932;2023-02-19T07:51:31;18.03;;;13.90;;
7074;SDS011;3578;51.568;6.932;2023-02-19T07:53:58;19.10;;;13.10;;
7074;SDS011;3578;51.568;6.932;2023-02-19T07:56:25;18.53;;;12.73;;
7074;SDS011;3578;51.568;6.932;2023-02-19T07:58:53;16.33;;;12.40;;
7074;SDS011;3578;51.568;6.932;2023-02-19T08:01:22;17.37;;;12.40;;
7074;SDS011;3578;51.568;6.932;2023-02-19T08:04:10;20.53;;;12.40;;
7074;SDS011;3578;51.568;6.932;2023-02-19T08:06:38;18.30;;;12.13;;
7074;SDS011;3578;51.568;6.932;2023-02-19T08:09:06;18.47;;;12.20;;
7074;SDS011;3578;51.568;6.932;2023-02-19T08:11:34;26.63;;;12.30;;
7074;SDS011;3578;51.568;6.932;2023-02-19T08:14:18;16.50;;;12.10;;
7074;SDS011;3578;51.568;6.932;2023-02-19T08:16:51;17.33;;;12.50;;
7074;SDS011;3578;51.568;6.932;2023-02-19T08:19:18;21.67;;;12.40;;
7074;SDS011;3578;51.568;6.932;2023-02-19T08:21:46;21.30;;;12.63;;
7074;SDS011;3578;51.568;6.932;2023-02-19T08:24:14;17.17;;;12.70;;
7074;SDS011;3578;51.568;6.932;2023-02-19T08:26:41;16.97;;;12.07;;
7074;SDS011;3578;51.568;6.932;2023-02-19T08:29:08;21.70;;;12.73;;
7074;SDS011;3578;51.568;6.932;2023-02-19T08:31:35;21.50;;;12.37;;
7074;SDS011;3578;51.568;6.932;2023-02-19T08:34:04;16.23;;;12.13;;
7074;SDS011;3578;51.568;6.932;2023-02-19T08:36:31;21.80;;;12.37;;
7074;SDS011;3578;51.568;6.932;2023-02-19T08:38:58;19.07;;;11.17;;
7074;SDS011;3578;51.568;6.932;2023-02-19T08:41:25;20.70;;;10.50;;
7074;SDS011;3578;51.568;6.932;2023-02-19T08:43:52;16.77;;;9.53;;
7074;SDS011;3578;51.568;6.932;2023-02-19T08:46:19;19.23;;;11.50;;
7074;SDS011;3578;51.568;6.932;2023-02-19T08:48:46;17.07;;;10.50;;
7074;SDS011;3578;51.568;6.932;2023-02-19T08:51:15;22.73;;;11.40;;
7074;SDS011;3578;51.568;6.932;2023-02-19T08:53:42;20.30;;;11.00;;
7074;SDS011;3578;51.568;6.932;2023-02-19T08:56:09;20.27;;;12.60;;
7074;SDS011;3578;51.568;6.932;2023-02-19T08:58:38;19.40;;;10.50;;
7074;SDS011;3578;51.568;6.932;2023-02-19T09:01:06;15.47;;;11.17;;
7074;SDS011;3578;51.568;6.932;2023-02-19T09:03:35;19.57;;;10.37;;
7074;SDS011;3578;51.568;6.932;2023-02-19T09:06:02;17.87;;;10.07;;
7074;SDS011;3578;51.568;6.932;2023-02-19T09:08:31;24.00;;;10.57;;
7074;SDS011;3578;51.568;6.932;2023-02-19T09:10:58;20.70;;;9.63;;
7074;SDS011;3578;51.568;6.932;2023-02-19T09:13:27;14.77;;;8.90;;
7074;SDS011;3578;51.568;6.932;2023-02-19T09:15:55;22.90;;;9.80;;
7074;SDS011;3578;51.568;6.932;2023-02-19T09:18:22;10.63;;;8.10;;
7074;SDS011;3578;51.568;6.932;2023-02-19T09:20:49;12.50;;;8.73;;
7074;SDS011;3578;51.568;6.932;2023-02-19T09:23:16;15.97;;;9.00;;
7074;SDS011;3578;51.568;6.932;2023-02-19T09:25:44;23.13;;;9.10;;
7074;SDS011;3578;51.568;6.932;2023-02-19T09:28:11;21.43;;;9.07;;
7074;SDS011;3578;51.568;6.932;2023-02-19T09:30:39;18.67;;;9.23;;
7074;SDS011;3578;51.568;6.932;2023-02-19T09:33:06;14.07;;;8.17;;
7074;SDS011;3578;51.568;6.932;2023-02-19T09:35:33;13.77;;;8.60;;
7074;SDS011;3578;51.568;6.932;2023-02-19T09:38:04;14.20;;;8.33;;
7074;SDS011;3578;51.568;6.932;2023-02-19T09:40:31;16.13;;;9.23;;
7074;SDS011;3578;51.568;6.932;2023-02-19T09:43:01;17.73;;;9.80;;
7074;SDS011;3578;51.568;6.932;2023-02-19T09:45:31;16.47;;;9.47;;
7074;SDS011;3578;51.568;6.932;2023-02-19T09:48:02;16.10;;;8.70;;
7074;SDS011;3578;51.568;6.932;2023-02-19T09:50:36;12.50;;;9.33;;
7074;SDS011;3578;51.568;6.932;2023-02-19T09:53:11;17.47;;;8.97;;
7074;SDS011;3578;51.568;6.932;2023-02-19T09:55:43;14.87;;;9.13;;
7074;SDS011;3578;51.568;6.932;2023-02-19T09:58:19;14.50;;;8.23;;
7074;SDS011;3578;51.568;6.932;2023-02-19T10:00:51;13.63;;;8.40;;
7074;SDS011;3578;51.568;6.932;2023-02-19T10:03:21;15.33;;;8.40;;
7074;SDS011;3578;51.568;6.932;2023-02-19T10:05:55;15.40;;;7.70;;
7074;SDS011;3578;51.568;6.932;2023-02-19T10:08:24;10.53;;;8.10;;
7074;SDS011;3578;51.568;6.932;2023-02-19T10:10:51;11.80;;;6.97;;
7074;SDS011;3578;51.568;6.932;2023-02-19T10:13:22;9.80;;;6.30;;
7074;SDS011;3578;51.568;6.932;2023-02-19T10:15:55;12.07;;;8.00;;
7074;SDS011;3578;51.568;6.932;2023-02-19T10:18:26;7.60;;;6.40;;
7074;SDS011;3578;51.568;6.932;2023-02-19T10:20:59;8.40;;;6.50;;
7074;SDS011;3578;51.568;6.932;2023-02-19T10:23:29;8.00;;;6.30;;
7074;SDS011;3578;51.568;6.932;2023-02-19T10:25:57;10.10;;;6.57;;
7074;SDS011;3578;51.568;6.932;2023-02-19T10:28:27;11.33;;;7.00;;
7074;SDS011;3578;51.568;6.932;2023-02-19T10:30:57;9.70;;;6.40;;
7074;SDS011;3578;51.568;6.932;2023-02-19T10:33:26;10.97;;;6.27;;
7074;SDS011;3578;51.568;6.932;2023-02-19T10:35:54;9.90;;;6.77;;
7074;SDS011;3578;51.568;6.932;2023-02-19T10:38:24;6.83;;;5.50;;
7074;SDS011;3578;51.568;6.932;2023-02-19T10:40:58;9.10;;;5.90;;
7074;SDS011;3578;51.568;6.932;2023-02-19T10:43:32;14.70;;;6.47;;
7074;SDS011;3578;51.568;6.932;2023-02-19T10:46:04;9.27;;;6.67;;
7074;SDS011;3578;51.568;6.932;2023-02-19T10:48:41;6.83;;;5.63;;
7074;SDS011;3578;51.568;6.932;2023-02-19T10:51:14;8.00;;;5.40;;
7074;SDS011;3578;51.568;6.932;2023-02-19T10:53:47;8.53;;;5.80;;
7074;SDS011;3578;51.568;6.932;2023-02-19T10:56:21;9.27;;;5.50;;
7074;SDS011;3578;51.568;6.932;2023-02-19T10:58:51;8.70;;;5.80;;
7074;SDS011;3578;51.568;6.932;2023-02-19T11:01:19;6.80;;;5.57;;
7074;SDS011;3578;51.568;6.932;2023-02-19T11:03:49;6.73;;;4.83;;
7074;SDS011;3578;51.568;6.932;2023-02-19T11:06:18;12.93;;;6.00;;
7074;SDS011;3578;51.568;6.932;2023-02-19T11:08:52;4.70;;;4.20;;
7074;SDS011;3578;51.568;6.932;2023-02-19T11:11:26;7.17;;;4.83;;
7074;SDS011;3578;51.568;6.932;2023-02-19T11:13:59;5.20;;;4.70;;
7074;SDS011;3578;51.568;6.932;2023-02-19T11:16:41;5.97;;;4.60;;
7074;SDS011;3578;51.568;6.932;2023-02-19T11:19:30;5.70;;;4.53;;
7074;SDS011;3578;51.568;6.932;2023-02-19T11:22:16;4.80;;;4.33;;
7074;SDS011;3578;51.568;6.932;2023-02-19T11:24:47;6.03;;;3.87;;
7074;SDS011;3578;51.568;6.932;2023-02-19T11:27:16;6.40;;;4.17;;
7074;SDS011;3578;51.568;6.932;2023-02-19T11:29:48;5.60;;;4.40;;
7074;SDS011;3578;51.568;6.932;2023-02-19T11:32:21;3.80;;;3.50;;
7074;SDS011;3578;51.568;6.932;2023-02-19T11:34:51;4.57;;;3.70;;
7074;SDS011;3578;51.568;6.932;2023-02-19T11:37:51;6.13;;;3.80;;
7074;SDS011;3578;51.568;6.932;2023-02-19T11:40:28;3.53;;;3.23;;
7074;SDS011;3578;51.568;6.932;2023-02-19T11:43:06;4.30;;;3.70;;
7074;SDS011;3578;51.568;6.932;2023-02-19T11:45:51;4.50;;;3.40;;
7074;SDS011;3578;51.568;6.932;2023-02-19T11:48:31;6.60;;;3.50;;
7074;SDS011;3578;51.568;6.932;2023-02-19T11:51:16;4.97;;;3.70;;
7074;SDS011;3578;51.568;6.932;2023-02-19T11:54:14;5.00;;;4.20;;
7074;SDS011;3578;51.568;6.932;2023-02-19T11:56:56;6.10;;;4.00;;
7074;SDS011;3578;51.568;6.932;2023-02-19T11:59:35;4.37;;;4.10;;
7074;SDS011;3578;51.568;6.932;2023-02-19T12:05:16;4.30;;;3.77;;
7074;SDS011;3578;51.568;6.932;2023-02-19T12:08:03;4.57;;;4.17;;
7074;SDS011;3578;51.568;6.932;2023-02-19T12:10:51;4.13;;;3.63;;
7074;SDS011;3578;51.568;6.932;2023-02-19T12:13:46;4.23;;;3.73;;
7074;SDS011;3578;51.568;6.932;2023-02-19T12:16:30;3.07;;;2.90;;
7074;SDS011;3578;51.568;6.932;2023-02-19T12:19:15;3.87;;;3.03;;
7074;SDS011;3578;51.568;6.932;2023-02-19T12:22:17;3.97;;;3.10;;
7074;SDS011;3578;51.568;6.932;2023-02-19T12:27:58;2.80;;;2.20;;
7074;SDS011;3578;51.568;6.932;2023-02-19T12:31:25;3.20;;;2.13;;
7074;SDS011;3578;51.568;6.932;2023-02-19T12:34:45;2.53;;;2.33;;
7074;SDS011;3578;51.568;6.932;2023-02-19T12:37:38;2.60;;;2.00;;
7074;SDS011;3578;51.568;6.932;2023-02-19T12:40:20;4.13;;;2.60;;
7074;SDS011;3578;51.568;6.932;2023-02-19T12:43:07;5.93;;;3.50;;
7074;SDS011;3578;51.568;6.932;2023-02-19T12:45:41;4.43;;;4.03;;
7074;SDS011;3578;51.568;6.932;2023-02-19T12:48:17;4.63;;;4.23;;
7074;SDS011;3578;51.568;6.932;2023-02-19T12:50:54;4.57;;;4.20;;
7074;SDS011;3578;51.568;6.932;2023-02-19T12:53:30;4.53;;;3.80;;
7074;SDS011;3578;51.568;6.932;2023-02-19T12:56:07;4.23;;;3.80;;
7074;SDS011;3578;51.568;6.932;2023-02-19T12:58:40;4.93;;;3.80;;
7074;SDS011;3578;51.568;6.932;2023-02-19T13:01:13;5.97;;;3.10;;
7074;SDS011;3578;51.568;6.932;2023-02-19T13:03:48;3.73;;;3.13;;
7074;SDS011;3578;51.568;6.932;2023-02-19T13:06:31;4.60;;;3.30;;
7074;SDS011;3578;51.568;6.932;2023-02-19T13:09:08;5.10;;;3.50;;
7074;SDS011;3578;51.568;6.932;2023-02-19T13:11:40;3.50;;;3.17;;
7074;SDS011;3578;51.568;6.932;2023-02-19T13:14:14;4.13;;;3.13;;
7074;SDS011;3578;51.568;6.932;2023-02-19T13:16:51;5.50;;;2.97;;
7074;SDS011;3578;51.568;6.932;2023-02-19T13:19:24;5.07;;;3.13;;
7074;SDS011;3578;51.568;6.932;2023-02-19T13:21:54;4.20;;;3.93;;
7074;SDS011;3578;51.568;6.932;2023-02-19T13:24:53;3.50;;;3.30;;
7074;SDS011;3578;51.568;6.932;2023-02-19T13:27:32;4.17;;;3.70;;
7074;SDS011;3578;51.568;6.932;2023-02-19T13:30:20;3.50;;;3.30;;
7074;SDS011;3578;51.568;6.932;2023-02-19T13:33:03;3.57;;;2.67;;
7074;SDS011;3578;51.568;6.932;2023-02-19T13:35:55;3.63;;;3.33;;
7074;SDS011;3578;51.568;6.932;2023-02-19T13:38:33;3.70;;;3.17;;
7074;SDS011;3578;51.568;6.932;2023-02-19T13:41:05;3.50;;;3.20;;
7074;SDS011;3578;51.568;6.932;2023-02-19T13:43:41;3.17;;;2.97;;
7074;SDS011;3578;51.568;6.932;2023-02-19T13:46:11;5.50;;;2.73;;
7074;SDS011;3578;51.568;6.932;2023-02-19T13:48:41;4.20;;;3.30;;
7074;SDS011;3578;51.568;6.932;2023-02-19T13:54:20;3.37;;;3.07;;
7074;SDS011;3578;51.568;6.932;2023-02-19T13:59:50;4.50;;;4.10;;
7074;SDS011;3578;51.568;6.932;2023-02-19T14:05:00;3.50;;;3.30;;
7074;SDS011;3578;51.568;6.932;2023-02-19T14:16:58;4.00;;;3.60;;
7074;SDS011;3578;51.568;6.932;2023-02-19T14:19:45;5.70;;;4.23;;
7074;SDS011;3578;51.568;6.932;2023-02-19T14:25:38;4.00;;;3.70;;
7074;SDS011;3578;51.568;6.932;2023-02-19T14:28:30;7.53;;;4.27;;
7074;SDS011;3578;51.568;6.932;2023-02-19T14:31:02;3.40;;;3.13;;
7074;SDS011;3578;51.568;6.932;2023-02-19T14:33:42;4.53;;;3.90;;
7074;SDS011;3578;51.568;6.932;2023-02-19T14:36:18;8.00;;;4.60;;
7074;SDS011;3578;51.568;6.932;2023-02-19T14:38:57;8.83;;;4.47;;
7074;SDS011;3578;51.568;6.932;2023-02-19T14:41:27;6.03;;;4.93;;
7074;SDS011;3578;51.568;6.932;2023-02-19T14:44:00;9.03;;;4.47;;
7074;SDS011;3578;51.568;6.932;2023-02-19T14:46:29;5.87;;;4.40;;
7074;SDS011;3578;51.568;6.932;2023-02-19T14:49:00;6.47;;;4.00;;
7074;SDS011;3578;51.568;6.932;2023-02-19T14:51:33;4.43;;;4.03;;
7074;SDS011;3578;51.568;6.932;2023-02-19T14:54:08;8.73;;;4.73;;
7074;SDS011;3578;51.568;6.932;2023-02-19T14:56:41;9.13;;;4.77;;
7074;SDS011;3578;51.568;6.932;2023-02-19T15:01:58;6.87;;;4.63;;
7074;SDS011;3578;51.568;6.932;2023-02-19T15:04:28;5.50;;;5.00;;
7074;SDS011;3578;51.568;6.932;2023-02-19T15:07:01;8.67;;;5.67;;
7074;SDS011;3578;51.568;6.932;2023-02-19T15:09:34;6.23;;;5.73;;
7074;SDS011;3578;51.568;6.932;2023-02-19T15:12:03;6.57;;;5.97;;
7074;SDS011;3578;51.568;6.932;2023-02-19T15:14:32;9.20;;;6.97;;
7074;SDS011;3578;51.568;6.932;2023-02-19T15:17:01;8.23;;;6.87;;
7074;SDS011;3578;51.568;6.932;2023-02-19T15:19:31;10.17;;;7.37;;
7074;SDS011;3578;51.568;6.932;2023-02-19T15:22:03;7.90;;;6.43;;
7074;SDS011;3578;51.568;6.932;2023-02-19T15:24:30;8.37;;;6.63;;
7074;SDS011;3578;51.568;6.932;2023-02-19T15:26:58;7.73;;;6.30;;
7074;SDS011;3578;51.568;6.932;2023-02-19T15:29:26;7.93;;;7.13;;
7074;SDS011;3578;51.568;6.932;2023-02-19T15:31:56;7.40;;;6.43;;
7074;SDS011;3578;51.568;6.932;2023-02-19T15:34:24;9.43;;;6.53;;
7074;SDS011;3578;51.568;6.932;2023-02-19T15:36:54;9.07;;;6.87;;
7074;SDS011;3578;51.568;6.932;2023-02-19T15:39:25;7.50;;;6.40;;
7074;SDS011;3578;51.568;6.932;2023-02-19T15:41:59;6.63;;;6.13;;
7074;SDS011;3578;51.568;6.932;2023-02-19T15:44:31;7.33;;;6.73;;
7074;SDS011;3578;51.568;6.932;2023-02-19T15:47:09;8.03;;;6.27;;
7074;SDS011;3578;51.568;6.932;2023-02-19T15:49:48;7.93;;;6.37;;
7074;SDS011;3578;51.568;6.932;2023-02-19T15:52:23;8.23;;;5.90;;
7074;SDS011;3578;51.568;6.932;2023-02-19T15:55:00;5.80;;;4.70;;
7074;SDS011;3578;51.568;6.932;2023-02-19T15:57:37;5.53;;;5.13;;
7074;SDS011;3578;51.568;6.932;2023-02-19T16:00:12;5.00;;;4.70;;
7074;SDS011;3578;51.568;6.932;2023-02-19T16:02:46;12.77;;;4.83;;